Time;durP1;ratioP1;P1;durP2;ratioP2;P2;SDS_P1;SDS_P2;PMS_P1;PMS_P2;Temp;Humidity;BMP_temperature;BMP_pressure;BME280_temperature;BME280_humidity;BME280_pressure;Samples;Min_cycle;Max_cycle;Signal;HPM_P1;HPM_P2
2023/07/30 00:01:50;;;;;;;5.10;2.60;;;18.80;69.40;;;;;;5050005;28;20045;-73
2023/07/30 00:04:16;;;;;;;7.90;3.08;;;18.70;69.40;;;;;;5033510;28;20488;-73
2023/07/30 00:06:41;;;;;;;10.75;3.90;;;18.70;69.60;;;;;;5051352;28;20290;-73
2023/07/30 00:09:07;;;;;;;6.75;2.88;;;18.70;69.70;;;;;;5052551;28;20033;-73
2023/07/30 00:11:33;;;;;;;5.63;2.42;;;18.70;69.90;;;;;;5035051;28;20079;-73
2023/07/30 00:13:58;;;;;;;6.03;2.97;;;18.60;69.90;;;;;;5051162;28;20124;-74
2023/07/30 00:16:27;;;;;;;8.05;3.47;;;18.60;70.00;;;;;;5018222;28;20468;-74
2023/07/30 00:18:53;;;;;;;9.20;3.63;;;18.60;70.20;;;;;;5051174;28;20049;-73
2023/07/30 00:21:18;;;;;;;8.52;3.20;;;18.60;70.20;;;;;;5051766;28;20041;-73
2023/07/30 00:23:44;;;;;;;8.07;3.42;;;18.60;70.40;;;;;;5033358;28;20052;-73
2023/07/30 00:26:10;;;;;;;9.13;3.22;;;18.50;70.40;;;;;;5016977;28;20222;-74
2023/07/30 00:28:36;;;;;;;8.98;3.72;;;18.50;70.50;;;;;;5016651;28;20094;-74
2023/07/30 00:31:01;;;;;;;12.18;3.63;;;18.50;70.60;;;;;;5049504;28;20543;-74
2023/07/30 00:33:27;;;;;;;10.38;3.58;;;18.50;70.80;;;;;;5051094;28;20123;-74
2023/07/30 00:35:53;;;;;;;6.40;2.50;;;18.50;70.90;;;;;;5052909;28;20041;-73
2023/07/30 00:38:19;;;;;;;8.60;3.38;;;18.40;70.90;;;;;;5020067;28;20057;-74
2023/07/30 00:40:45;;;;;;;9.07;4.07;;;18.40;71.00;;;;;;5036510;28;20064;-73
2023/07/30 00:43:10;;;;;;;11.80;3.40;;;18.40;71.10;;;;;;5052636;28;20488;-73
2023/07/30 00:45:40;;;;;;;9.27;2.80;;;18.40;71.10;;;;;;5053029;28;20041;-73
2023/07/30 00:48:05;;;;;;;8.13;2.92;;;18.40;71.20;;;;;;5052548;28;20051;-74
2023/07/30 00:50:32;;;;;;;7.60;3.10;;;18.40;71.30;;;;;;5052802;28;20395;-74
2023/07/30 00:52:58;;;;;;;5.70;2.45;;;18.30;71.40;;;;;;5053130;28;20084;-74
2023/07/30 00:55:24;;;;;;;11.38;3.75;;;18.40;71.40;;;;;;5036609;28;20072;-74
2023/07/30 00:57:51;;;;;;;10.43;3.17;;;18.30;71.60;;;;;;5036431;28;20087;-74
2023/07/30 01:00:17;;;;;;;8.23;3.67;;;18.30;71.60;;;;;;5036247;28;20072;-74
2023/07/30 01:02:43;;;;;;;9.27;3.58;;;18.30;71.70;;;;;;5052659;28;20590;-74
2023/07/30 01:05:09;;;;;;;6.75;2.80;;;18.30;71.70;;;;;;5052768;28;20047;-74
2023/07/30 01:07:35;;;;;;;9.20;3.10;;;18.30;71.70;;;;;;5052544;28;20041;-73
2023/07/30 01:10:02;;;;;;;8.18;3.17;;;18.30;71.70;;;;;;5036005;28;20091;-74
2023/07/30 01:12:30;;;;;;;11.38;4.00;;;18.30;71.80;;;;;;5052542;28;20048;-73
2023/07/30 01:14:56;;;;;;;8.80;3.05;;;18.30;71.90;;;;;;5052720;28;20063;-74
2023/07/30 01:17:23;;;;;;;10.75;3.70;;;18.20;71.90;;;;;;5052482;28;20049;-74
2023/07/30 01:19:54;;;;;;;9.45;3.30;;;18.20;71.90;;;;;;5052394;28;20095;-73
2023/07/30 01:22:20;;;;;;;8.48;3.10;;;18.20;71.90;;;;;;5052765;28;20452;-73
2023/07/30 01:24:46;;;;;;;11.73;3.72;;;18.20;71.90;;;;;;5052357;28;20041;-74
2023/07/30 01:27:22;;;;;;;9.60;4.40;;;18.20;72.10;;;;;;5052311;28;20365;-74
2023/07/30 01:30:08;;;;;;;7.82;3.40;;;18.20;72.20;;;;;;5052033;28;20567;-74
2023/07/30 01:32:34;;;;;;;8.27;2.95;;;18.20;72.10;;;;;;5052243;28;20059;-74
2023/07/30 01:35:01;;;;;;;9.60;3.40;;;18.10;72.10;;;;;;5052191;28;20093;-74
2023/07/30 01:37:29;;;;;;;9.18;3.28;;;18.10;72.20;;;;;;5051840;28;20098;-74
2023/07/30 01:39:56;;;;;;;8.75;3.78;;;18.10;72.20;;;;;;5052011;28;20051;-73
2023/07/30 01:42:21;;;;;;;11.48;3.63;;;18.10;72.30;;;;;;5052142;28;20480;-73
2023/07/30 01:44:47;;;;;;;9.85;3.05;;;18.10;72.30;;;;;;5035006;28;20132;-73
2023/07/30 01:47:13;;;;;;;9.20;3.05;;;18.00;72.30;;;;;;5051971;28;20037;-73
2023/07/30 01:49:38;;;;;;;15.13;4.03;;;18.00;72.30;;;;;;5035060;28;20045;-73
2023/07/30 01:52:04;;;;;;;6.78;2.90;;;18.00;72.30;;;;;;5035774;28;20041;-74
2023/07/30 01:54:30;;;;;;;10.02;3.30;;;18.00;72.30;;;;;;5035574;28;20512;-73
2023/07/30 01:56:55;;;;;;;8.98;3.25;;;18.00;72.40;;;;;;5035323;28;20044;-73
2023/07/30 01:59:21;;;;;;;7.03;3.08;;;18.00;72.50;;;;;;5051756;28;20048;-74
2023/07/30 02:01:47;;;;;;;8.68;2.90;;;18.00;72.50;;;;;;5051582;28;20456;-75
2023/07/30 02:04:13;;;;;;;14.63;3.67;;;17.90;72.50;;;;;;5051466;28;20047;-75
2023/07/30 02:06:38;;;;;;;12.35;3.72;;;18.00;72.70;;;;;;5035197;28;20106;-74
2023/07/30 02:09:04;;;;;;;7.68;3.08;;;17.90;72.80;;;;;;5034832;28;20397;-75
2023/07/30 02:11:29;;;;;;;12.77;3.95;;;17.90;72.90;;;;;;5018800;28;20080;-74
2023/07/30 02:13:55;;;;;;;10.05;3.50;;;17.90;73.00;;;;;;5034688;28;20446;-75
2023/07/30 02:16:21;;;;;;;8.85;2.80;;;17.90;73.20;;;;;;5051216;28;20048;-74
2023/07/30 02:18:47;;;;;;;9.73;3.88;;;17.90;73.20;;;;;;5051474;28;20044;-74
2023/07/30 02:21:13;;;;;;;11.63;3.30;;;17.90;73.40;;;;;;5051051;28;20086;-74
2023/07/30 02:23:39;;;;;;;9.35;2.95;;;17.80;73.50;;;;;;5051575;28;20076;-74
2023/07/30 02:26:04;;;;;;;8.80;3.10;;;17.90;73.70;;;;;;5051069;28;20461;-74
2023/07/30 02:28:30;;;;;;;9.70;3.33;;;17.90;73.70;;;;;;5050920;28;20045;-75
2023/07/30 02:30:56;;;;;;;11.70;3.60;;;17.80;73.70;;;;;;5034274;28;20056;-74
2023/07/30 02:33:21;;;;;;;9.50;3.47;;;17.80;73.90;;;;;;5051038;28;20052;-74
2023/07/30 02:35:47;;;;;;;9.98;3.00;;;17.80;74.00;;;;;;5034600;28;20037;-74
2023/07/30 02:38:13;;;;;;;11.60;3.35;;;17.80;74.20;;;;;;5035746;28;20037;-75
2023/07/30 02:40:38;;;;;;;7.13;2.83;;;17.80;74.30;;;;;;5051824;28;20037;-74
2023/07/30 02:43:04;;;;;;;9.38;3.65;;;17.70;74.30;;;;;;5034166;28;20037;-74
2023/07/30 02:45:30;;;;;;;17.35;4.55;;;17.70;74.50;;;;;;5034068;28;20045;-75
2023/07/30 02:47:55;;;;;;;9.38;3.13;;;17.70;74.70;;;;;;5034055;28;20044;-75
2023/07/30 02:50:21;;;;;;;6.57;3.05;;;17.70;74.80;;;;;;5034282;28;20076;-75
2023/07/30 02:52:47;;;;;;;12.45;3.45;;;17.70;74.90;;;;;;5051159;28;20045;-75
2023/07/30 02:55:13;;;;;;;12.48;3.92;;;17.70;75.00;;;;;;5049971;28;20399;-74
2023/07/30 02:57:38;;;;;;;10.63;4.10;;;17.70;75.10;;;;;;5050812;28;20048;-74
2023/07/30 03:00:05;;;;;;;11.00;3.13;;;17.70;75.20;;;;;;5050714;28;20047;-75
2023/07/30 03:02:30;;;;;;;10.85;3.72;;;17.70;75.20;;;;;;5050511;28;20110;-74
2023/07/30 03:04:56;;;;;;;12.00;3.65;;;17.70;75.10;;;;;;5050483;28;20195;-74
2023/07/30 03:07:22;;;;;;;13.38;4.07;;;17.60;75.10;;;;;;5050673;28;20052;-74
2023/07/30 03:09:48;;;;;;;14.27;4.38;;;17.70;75.10;;;;;;5050626;28;20084;-74
2023/07/30 03:12:14;;;;;;;11.65;3.78;;;17.60;75.10;;;;;;5034011;28;20037;-74
2023/07/30 03:14:40;;;;;;;6.43;2.63;;;17.60;75.10;;;;;;5033869;28;20484;-74
2023/07/30 03:17:06;;;;;;;12.35;3.10;;;17.60;75.10;;;;;;5033579;28;20103;-74
2023/07/30 03:19:31;;;;;;;14.85;4.10;;;17.60;75.10;;;;;;5033973;28;20041;-74
2023/07/30 03:21:57;;;;;;;8.27;3.25;;;17.60;75.10;;;;;;5050140;28;20060;-74
2023/07/30 03:24:23;;;;;;;8.25;3.22;;;17.60;75.00;;;;;;5017409;28;20036;-74
2023/07/30 03:26:49;;;;;;;9.10;3.08;;;17.60;75.00;;;;;;5033520;28;20037;-75
2023/07/30 03:29:15;;;;;;;11.55;3.55;;;17.60;75.00;;;;;;5049817;28;20128;-74
2023/07/30 03:31:41;;;;;;;10.07;3.35;;;17.60;75.00;;;;;;5050557;28;20045;-74
2023/07/30 03:34:07;;;;;;;9.70;3.33;;;17.60;74.90;;;;;;5049997;28;20517;-75
2023/07/30 03:36:33;;;;;;;6.18;2.78;;;17.50;74.80;;;;;;5050063;28;20029;-74
2023/07/30 03:38:59;;;;;;;7.13;2.50;;;17.50;74.80;;;;;;5050144;28;20128;-74
2023/07/30 03:41:25;;;;;;;7.15;2.65;;;17.50;74.80;;;;;;5050231;28;20056;-75
2023/07/30 03:43:50;;;;;;;11.95;2.85;;;17.50;74.70;;;;;;5050102;28;20472;-73
2023/07/30 03:46:16;;;;;;;7.53;2.35;;;17.50;74.60;;;;;;5049949;28;20124;-74
2023/07/30 03:48:42;;;;;;;6.10;2.58;;;17.50;74.60;;;;;;5049868;28;20190;-73
2023/07/30 03:51:08;;;;;;;9.82;2.75;;;17.50;74.60;;;;;;5050243;28;20040;-73
2023/07/30 03:53:34;;;;;;;5.70;2.60;;;17.50;74.60;;;;;;5033488;28;20116;-73
2023/07/30 03:56:00;;;;;;;13.15;3.45;;;17.50;74.60;;;;;;5033563;28;20040;-73
2023/07/30 03:58:25;;;;;;;7.80;3.08;;;17.50;74.60;;;;;;5050251;28;20040;-73
2023/07/30 04:00:51;;;;;;;6.68;2.38;;;17.50;74.60;;;;;;5050021;28;20425;-73
2023/07/30 04:03:17;;;;;;;9.50;3.17;;;17.50;74.60;;;;;;5049814;28;20055;-74
2023/07/30 04:05:42;;;;;;;10.18;3.10;;;17.50;74.70;;;;;;5049939;28;20033;-74
2023/07/30 04:08:08;;;;;;;9.02;2.45;;;17.50;74.80;;;;;;5052589;28;20067;-74
2023/07/30 04:10:34;;;;;;;14.57;3.47;;;17.50;74.90;;;;;;5053562;28;20175;-73
2023/07/30 04:12:59;;;;;;;6.75;2.60;;;17.40;74.90;;;;;;5053708;28;20044;-73
2023/07/30 04:15:25;;;;;;;11.13;3.17;;;17.50;75.00;;;;;;5053495;28;20135;-73
2023/07/30 04:17:51;;;;;;;9.23;3.47;;;17.40;74.90;;;;;;5053595;28;20089;-73
2023/07/30 04:20:17;;;;;;;7.03;3.40;;;17.40;75.00;;;;;;5036923;28;20471;-74
2023/07/30 04:22:44;;;;;;;7.50;2.88;;;17.40;75.10;;;;;;5053265;28;20114;-73
2023/07/30 04:25:10;;;;;;;11.00;3.17;;;17.40;75.20;;;;;;5053421;28;20045;-74
2023/07/30 04:27:37;;;;;;;6.65;2.53;;;17.50;75.30;;;;;;5036968;28;20045;-73
2023/07/30 04:30:04;;;;;;;11.43;3.50;;;17.40;75.40;;;;;;5053071;28;20061;-73
2023/07/30 04:32:30;;;;;;;7.55;2.95;;;17.50;75.70;;;;;;5053801;28;20455;-73
2023/07/30 04:34:56;;;;;;;8.20;3.47;;;17.50;75.80;;;;;;5053874;28;20090;-72
2023/07/30 04:37:21;;;;;;;9.80;3.38;;;17.50;75.90;;;;;;5038303;28;20041;-74
2023/07/30 04:39:49;;;;;;;12.85;4.32;;;17.50;76.10;;;;;;5039376;28;20105;-74
2023/07/30 04:42:15;;;;;;;11.30;3.88;;;17.50;76.30;;;;;;5058686;28;20060;-73
2023/07/30 04:44:41;;;;;;;14.75;4.00;;;17.50;76.40;;;;;;5058033;28;20476;-74
2023/07/30 04:47:07;;;;;;;12.10;3.65;;;17.50;76.70;;;;;;5041024;28;20128;-73
2023/07/30 04:49:33;;;;;;;9.05;2.92;;;17.50;77.20;;;;;;5040926;28;20048;-75
2023/07/30 04:51:59;;;;;;;12.30;4.03;;;17.50;76.90;;;;;;5057754;28;20104;-74
2023/07/30 04:54:24;;;;;;;11.05;3.38;;;17.50;77.10;;;;;;5037408;28;20049;-74
2023/07/30 04:56:50;;;;;;;12.23;3.50;;;17.50;77.10;;;;;;5037527;28;20087;-73
2023/07/30 04:59:16;;;;;;;9.82;3.42;;;17.50;77.40;;;;;;5053411;28;20542;-74
2023/07/30 05:01:42;;;;;;;9.27;3.50;;;17.50;77.30;;;;;;5052833;28;20057;-74
2023/07/30 05:04:07;;;;;;;9.38;3.13;;;17.50;77.30;;;;;;5052810;28;20047;-74
2023/07/30 05:06:33;;;;;;;9.15;3.42;;;17.50;77.30;;;;;;5052802;28;20045;-73
2023/07/30 05:08:59;;;;;;;10.40;3.65;;;17.60;77.40;;;;;;5054971;28;20045;-73
2023/07/30 05:11:25;;;;;;;9.23;3.28;;;17.60;77.40;;;;;;5019813;28;20175;-74
2023/07/30 05:13:50;;;;;;;10.55;4.13;;;17.60;77.50;;;;;;5036069;28;20456;-74
2023/07/30 05:16:16;;;;;;;16.17;4.38;;;17.60;77.50;;;;;;5052266;28;20450;-75
2023/07/30 05:18:42;;;;;;;14.13;3.60;;;17.60;77.50;;;;;;5051590;28;20052;-74
2023/07/30 05:21:07;;;;;;;9.82;2.67;;;17.60;77.60;;;;;;5052320;28;20138;-75
2023/07/30 05:23:33;;;;;;;13.07;4.40;;;17.60;77.50;;;;;;5019360;28;20068;-74
2023/07/30 05:25:59;;;;;;;11.00;3.70;;;17.60;77.60;;;;;;5052076;28;20049;-74
2023/07/30 05:28:24;;;;;;;7.85;3.25;;;17.70;77.60;;;;;;5052086;28;20045;-74
2023/07/30 05:30:50;;;;;;;12.32;3.40;;;17.70;77.50;;;;;;5051805;28;20504;-74
2023/07/30 05:33:16;;;;;;;9.68;3.33;;;17.70;77.50;;;;;;5035450;28;20048;-75
2023/07/30 05:35:41;;;;;;;8.77;3.25;;;17.70;77.50;;;;;;5051868;28;20147;-75
2023/07/30 05:38:07;;;;;;;8.10;3.15;;;17.70;77.50;;;;;;5051904;28;20129;-75
2023/07/30 05:40:35;;;;;;;9.73;3.83;;;17.70;77.50;;;;;;5051513;28;20045;-75
2023/07/30 05:43:01;;;;;;;10.95;4.20;;;17.80;77.60;;;;;;5051614;28;20081;-74
2023/07/30 05:45:27;;;;;;;14.55;4.05;;;17.80;77.70;;;;;;5051616;28;20063;-75
2023/07/30 05:47:52;;;;;;;9.48;3.22;;;17.80;77.70;;;;;;5051515;28;20049;-75
2023/07/30 05:50:18;;;;;;;11.40;4.05;;;17.80;77.80;;;;;;5051488;28;20480;-75
2023/07/30 05:52:44;;;;;;;11.90;3.83;;;17.80;77.70;;;;;;5052250;28;20045;-75
2023/07/30 05:55:10;;;;;;;10.10;3.35;;;17.80;77.80;;;;;;5051801;28;20037;-75
2023/07/30 05:57:37;;;;;;;11.88;3.97;;;17.90;77.90;;;;;;5035079;28;20052;-75
2023/07/30 06:00:03;;;;;;;10.68;2.97;;;17.90;78.00;;;;;;5035246;28;20037;-75
2023/07/30 06:02:29;;;;;;;11.43;3.88;;;17.90;78.00;;;;;;5051969;28;20048;-75
2023/07/30 06:04:54;;;;;;;11.82;3.80;;;17.90;78.10;;;;;;5051776;28;20047;-75
2023/07/30 06:07:20;;;;;;;15.32;4.15;;;17.90;78.20;;;;;;5051708;28;20049;-75
2023/07/30 06:09:46;;;;;;;9.88;3.95;;;17.90;78.20;;;;;;5052065;28;20033;-75
2023/07/30 06:12:11;;;;;;;11.50;3.35;;;18.00;78.30;;;;;;5035254;28;20045;-74
2023/07/30 06:14:37;;;;;;;14.10;4.20;;;18.00;78.40;;;;;;5051800;28;20354;-73
2023/07/30 06:17:03;;;;;;;14.57;2.95;;;18.10;78.50;;;;;;5051327;28;20068;-73
2023/07/30 06:19:29;;;;;;;13.38;3.90;;;18.10;78.60;;;;;;5051395;28;20041;-74
2023/07/30 06:21:54;;;;;;;10.48;3.25;;;18.10;78.50;;;;;;5051214;28;20052;-74
2023/07/30 06:24:20;;;;;;;14.00;3.53;;;18.10;78.50;;;;;;5034703;28;20132;-74
2023/07/30 06:26:46;;;;;;;15.05;3.70;;;18.20;78.60;;;;;;5051241;28;20068;-74
2023/07/30 06:29:12;;;;;;;11.35;3.65;;;18.20;78.50;;;;;;5034483;28;20061;-74
2023/07/30 06:31:37;;;;;;;13.95;3.45;;;18.30;78.50;;;;;;5050015;28;20049;-74
2023/07/30 06:34:03;;;;;;;12.27;4.60;;;18.30;78.40;;;;;;5051249;28;20047;-73
2023/07/30 06:36:29;;;;;;;15.15;3.97;;;18.30;78.00;;;;;;5034797;28;20044;-74
2023/07/30 06:38:54;;;;;;;12.82;3.63;;;18.40;77.80;;;;;;5051192;28;20595;-74
2023/07/30 06:41:21;;;;;;;14.07;3.63;;;18.40;77.90;;;;;;5050916;28;20089;-74
2023/07/30 06:43:47;;;;;;;12.65;3.85;;;18.50;77.40;;;;;;5017978;28;20388;-73
2023/07/30 06:46:13;;;;;;;11.63;3.30;;;18.60;77.20;;;;;;5050915;28;20040;-75
2023/07/30 06:48:38;;;;;;;12.23;3.70;;;18.60;77.10;;;;;;5050629;28;20033;-74
2023/07/30 06:51:09;;;;;;;14.43;3.35;;;18.70;77.20;;;;;;5051228;28;20438;-75
2023/07/30 06:53:35;;;;;;;11.63;3.22;;;18.90;77.10;;;;;;5034759;28;20040;-75
2023/07/30 06:56:00;;;;;;;8.80;2.50;;;19.00;76.80;;;;;;5050834;28;20504;-74
2023/07/30 06:58:26;;;;;;;12.15;3.25;;;19.20;76.40;;;;;;5050932;28;20041;-74
2023/07/30 07:00:52;;;;;;;12.32;2.92;;;19.40;75.70;;;;;;5051051;28;20135;-74
2023/07/30 07:03:17;;;;;;;11.70;3.17;;;19.60;75.00;;;;;;5050527;28;20488;-75
2023/07/30 07:05:43;;;;;;;13.60;3.50;;;19.80;74.00;;;;;;5050519;28;20128;-74
2023/07/30 07:08:09;;;;;;;10.63;2.75;;;19.90;73.00;;;;;;5050217;28;20098;-75
2023/07/30 07:10:35;;;;;;;12.48;3.58;;;20.10;72.80;;;;;;5033766;28;20073;-75
2023/07/30 07:13:00;;;;;;;12.13;3.03;;;20.30;72.00;;;;;;5050322;28;20106;-74
2023/07/30 07:15:26;;;;;;;10.00;2.95;;;20.50;71.50;;;;;;5050346;28;20116;-74
2023/07/30 07:17:52;;;;;;;8.35;2.75;;;20.60;70.20;;;;;;5034018;28;20139;-74
2023/07/30 07:20:18;;;;;;;16.02;4.25;;;20.70;69.20;;;;;;5050291;28;20381;-74
2023/07/30 07:22:43;;;;;;;15.65;3.35;;;20.80;68.40;;;;;;5050415;28;20045;-75
2023/07/30 07:25:10;;;;;;;10.80;3.08;;;20.90;67.80;;;;;;5033894;28;20041;-74
2023/07/30 07:27:35;;;;;;;11.05;3.05;;;21.00;67.50;;;;;;5050176;28;20129;-74
2023/07/30 07:30:01;;;;;;;9.18;2.65;;;21.00;66.70;;;;;;5050404;28;20128;-74
2023/07/30 07:32:27;;;;;;;12.15;3.20;;;21.10;66.70;;;;;;5050099;28;20045;-74
2023/07/30 07:34:53;;;;;;;10.50;3.25;;;21.10;67.10;;;;;;5050545;28;20101;-74
2023/07/30 07:37:19;;;;;;;10.23;3.00;;;21.40;67.50;;;;;;5050720;28;20048;-73
2023/07/30 07:39:46;;;;;;;9.02;2.85;;;21.60;67.30;;;;;;5050915;28;20053;-73
2023/07/30 07:42:12;;;;;;;10.90;3.20;;;21.80;66.20;;;;;;5052066;28;20495;-74
2023/07/30 07:44:37;;;;;;;8.65;2.45;;;22.00;65.40;;;;;;5054788;28;20080;-74
2023/07/30 07:47:03;;;;;;;11.30;3.35;;;22.20;64.80;;;;;;5055501;28;20087;-74
2023/07/30 07:49:29;;;;;;;10.80;2.63;;;22.30;64.00;;;;;;5038083;28;20041;-74
2023/07/30 07:51:55;;;;;;;10.77;3.40;;;22.40;63.60;;;;;;5054591;28;20041;-73
2023/07/30 07:54:20;;;;;;;9.65;3.00;;;22.40;63.10;;;;;;5054861;28;20119;-73
2023/07/30 07:56:46;;;;;;;8.80;2.33;;;22.40;62.30;;;;;;5055054;28;20416;-73
2023/07/30 07:59:12;;;;;;;12.95;3.88;;;22.40;61.80;;;;;;5039880;28;20403;-73
2023/07/30 08:01:38;;;;;;;10.38;2.90;;;22.40;61.50;;;;;;5038653;28;20055;-75
2023/07/30 08:04:03;;;;;;;9.48;2.95;;;22.40;61.40;;;;;;5054628;28;20051;-72
2023/07/30 08:06:31;;;;;;;6.32;2.38;;;22.30;61.50;;;;;;5054706;28;20056;-72
2023/07/30 08:08:57;;;;;;;8.68;2.63;;;22.30;60.60;;;;;;5054288;28;20049;-72
2023/07/30 08:11:22;;;;;;;9.88;2.72;;;22.20;60.00;;;;;;5054512;28;20484;-73
2023/07/30 08:13:48;;;;;;;6.55;1.98;;;22.10;59.90;;;;;;5054370;28;20059;-73
2023/07/30 08:16:14;;;;;;;10.32;3.05;;;22.00;60.10;;;;;;5038122;28;20044;-74
2023/07/30 08:18:39;;;;;;;8.60;2.42;;;21.90;60.50;;;;;;5054628;28;20055;-74
2023/07/30 08:21:05;;;;;;;6.80;2.00;;;21.70;60.90;;;;;;5037734;28;20412;-75
2023/07/30 08:23:31;;;;;;;8.23;2.30;;;21.60;61.10;;;;;;5054364;28;20046;-75
2023/07/30 08:25:56;;;;;;;7.07;2.25;;;21.50;61.50;;;;;;5054346;28;20357;-75
2023/07/30 08:28:22;;;;;;;6.35;1.83;;;21.40;61.40;;;;;;5037471;28;20076;-75
2023/07/30 08:30:48;;;;;;;9.38;1.98;;;21.30;61.70;;;;;;5053782;28;20381;-75
2023/07/30 08:33:13;;;;;;;7.85;2.70;;;21.30;62.10;;;;;;5053917;28;20131;-74
2023/07/30 08:35:39;;;;;;;8.48;1.98;;;21.20;62.50;;;;;;5037583;28;20134;-75
2023/07/30 08:38:05;;;;;;;3.85;1.77;;;21.10;62.90;;;;;;5053800;28;20507;-76
2023/07/30 08:40:32;;;;;;;6.10;1.95;;;21.00;63.30;;;;;;5037377;28;20052;-75
2023/07/30 08:42:58;;;;;;;7.82;2.55;;;20.90;63.90;;;;;;5053734;28;20479;-76
2023/07/30 08:45:23;;;;;;;7.60;2.10;;;20.90;64.40;;;;;;5053640;28;20049;-76
2023/07/30 08:47:49;;;;;;;6.93;1.80;;;20.80;64.70;;;;;;5037166;28;20064;-75
2023/07/30 08:50:15;;;;;;;5.32;1.80;;;20.70;65.00;;;;;;5053594;28;20041;-76
2023/07/30 08:52:41;;;;;;;6.47;2.17;;;20.70;65.10;;;;;;5053554;28;20043;-76
2023/07/30 08:55:07;;;;;;;8.25;1.90;;;20.60;65.30;;;;;;5052614;28;20473;-76
2023/07/30 08:57:34;;;;;;;5.82;1.73;;;20.60;65.40;;;;;;5037429;28;20049;-75
2023/07/30 09:00:01;;;;;;;6.05;1.60;;;20.50;65.50;;;;;;5054830;28;20051;-76
2023/07/30 09:02:37;;;;;;;10.30;2.55;;;20.50;65.90;;;;;;5053428;28;20079;-75
2023/07/30 09:05:04;;;;;;;7.90;2.60;;;20.50;66.70;;;;;;5053616;28;20041;-75
2023/07/30 09:07:30;;;;;;;6.88;2.17;;;20.40;66.80;;;;;;5054114;28;20110;-76
2023/07/30 09:09:56;;;;;;;7.20;2.42;;;20.30;67.40;;;;;;5054005;28;20041;-75
2023/07/30 09:12:35;;;;;;;9.25;2.45;;;20.30;67.50;;;;;;5053858;28;20041;-75
2023/07/30 09:15:04;;;;;;;5.85;2.03;;;20.20;67.90;;;;;;5053261;28;20041;-75
2023/07/30 09:17:30;;;;;;;10.40;2.75;;;20.20;68.10;;;;;;5053303;28;20132;-76
2023/07/30 09:19:58;;;;;;;7.60;2.55;;;20.10;68.30;;;;;;5053677;28;20198;-75
2023/07/30 09:22:29;;;;;;;5.55;1.83;;;20.00;68.70;;;;;;5053897;28;20056;-75
2023/07/30 09:24:56;;;;;;;5.40;2.10;;;20.00;68.60;;;;;;5053061;28;20041;-75
2023/07/30 09:27:25;;;;;;;3.55;1.35;;;20.00;68.50;;;;;;5053031;28;20059;-75
2023/07/30 09:29:55;;;;;;;5.35;1.80;;;19.90;68.70;;;;;;5052994;28;20061;-75
2023/07/30 09:32:25;;;;;;;4.82;1.40;;;19.80;68.90;;;;;;5052592;28;20045;-75
2023/07/30 09:34:50;;;;;;;5.15;1.23;;;19.80;68.90;;;;;;5052773;28;20059;-75
2023/07/30 09:37:16;;;;;;;4.65;1.60;;;19.80;69.30;;;;;;5052374;28;20480;-75
2023/07/30 09:39:43;;;;;;;6.38;1.58;;;19.70;69.70;;;;;;5035892;28;20044;-75
2023/07/30 09:42:09;;;;;;;6.50;1.35;;;19.70;70.10;;;;;;5035859;28;20068;-75
2023/07/30 09:44:37;;;;;;;5.88;1.55;;;19.70;70.30;;;;;;5052088;28;20079;-75
2023/07/30 09:47:05;;;;;;;4.80;1.27;;;19.70;70.60;;;;;;5035672;28;20041;-75
2023/07/30 09:49:34;;;;;;;4.00;1.20;;;19.60;70.90;;;;;;5035667;28;20051;-75
2023/07/30 09:52:01;;;;;;;4.00;1.50;;;19.60;70.90;;;;;;5051791;28;20172;-75
2023/07/30 09:54:27;;;;;;;7.38;2.15;;;19.60;71.10;;;;;;5051696;28;20045;-74
2023/07/30 09:56:52;;;;;;;6.72;2.03;;;19.60;71.10;;;;;;5051964;28;20171;-75
2023/07/30 09:59:18;;;;;;;6.22;1.55;;;19.60;71.40;;;;;;5051608;28;20381;-75
2023/07/30 10:01:49;;;;;;;6.97;2.00;;;19.60;71.50;;;;;;5034732;28;20041;-75
2023/07/30 10:04:17;;;;;;;5.90;1.58;;;19.70;72.30;;;;;;5051297;28;20049;-75
2023/07/30 10:07:09;;;;;;;6.63;2.17;;;19.70;73.90;;;;;;5051340;28;20496;-75
2023/07/30 10:09:43;;;;;;;7.00;2.03;;;19.90;73.90;;;;;;5051393;28;20048;-75
2023/07/30 10:12:18;;;;;;;4.63;1.60;;;19.90;74.20;;;;;;5051641;28;20083;-75
2023/07/30 10:14:44;;;;;;;5.28;1.90;;;20.10;74.40;;;;;;5051423;28;20532;-75
2023/07/30 10:17:11;;;;;;;7.63;1.80;;;20.30;73.90;;;;;;5051474;28;20045;-75
2023/07/30 10:19:37;;;;;;;7.18;1.70;;;20.40;74.10;;;;;;5051278;28;20045;-75
2023/07/30 10:22:18;;;;;;;6.10;1.85;;;20.60;74.70;;;;;;5051342;28;20139;-75
2023/07/30 10:24:58;;;;;;;6.97;1.88;;;20.80;74.20;;;;;;5051180;28;20130;-74
2023/07/30 10:27:25;;;;;;;9.90;1.73;;;20.90;73.50;;;;;;5051134;28;20045;-75
2023/07/30 10:30:11;;;;;;;7.07;1.70;;;21.10;72.60;;;;;;5050927;28;20064;-75
2023/07/30 10:32:55;;;;;;;7.35;1.80;;;21.30;71.20;;;;;;5051284;28;20132;-74
2023/07/30 10:35:38;;;;;;;7.20;2.25;;;21.50;69.80;;;;;;5034746;28;20043;-74
2023/07/30 10:38:30;;;;;;;5.97;2.15;;;21.70;67.80;;;;;;5034609;28;20057;-74
2023/07/30 10:41:12;;;;;;;9.18;2.17;;;21.90;66.60;;;;;;5034535;28;20102;-74
2023/07/30 10:43:46;;;;;;;9.10;1.90;;;22.00;65.60;;;;;;5034562;28;20052;-74
2023/07/30 10:46:13;;;;;;;5.88;2.15;;;22.20;64.70;;;;;;5050996;28;20136;-74
2023/07/30 10:48:44;;;;;;;5.78;2.20;;;22.30;64.90;;;;;;5034380;28;20532;-75
2023/07/30 10:51:23;;;;;;;5.68;1.73;;;22.40;65.80;;;;;;5051042;28;20044;-74
2023/07/30 10:53:51;;;;;;;6.45;1.70;;;22.60;63.90;;;;;;5051140;28;20399;-75
2023/07/30 10:56:19;;;;;;;8.48;1.98;;;22.70;62.30;;;;;;5034364;28;20040;-75
2023/07/30 10:58:50;;;;;;;6.10;1.70;;;22.80;59.70;;;;;;5050879;28;20075;-74
2023/07/30 11:01:16;;;;;;;5.10;1.80;;;22.90;59.20;;;;;;5050782;28;20044;-74
2023/07/30 11:03:42;;;;;;;8.43;1.90;;;23.00;59.20;;;;;;5050884;28;20052;-74
2023/07/30 11:06:10;;;;;;;6.80;1.70;;;23.10;58.60;;;;;;5050722;28;20193;-74
2023/07/30 11:08:37;;;;;;;6.32;1.90;;;23.10;58.70;;;;;;5050424;28;20053;-74
2023/07/30 11:11:04;;;;;;;6.05;1.63;;;23.10;58.20;;;;;;5034638;28;20071;-75
2023/07/30 11:13:30;;;;;;;7.82;1.90;;;23.20;58.10;;;;;;5051151;28;20037;-74
2023/07/30 11:15:55;;;;;;;5.57;1.52;;;23.20;56.70;;;;;;5050802;28;20115;-74
2023/07/30 11:18:21;;;;;;;4.72;1.45;;;23.20;56.80;;;;;;5034085;28;20056;-74
2023/07/30 11:20:47;;;;;;;6.03;1.65;;;23.20;56.80;;;;;;5034724;28;20106;-74
2023/07/30 11:23:21;;;;;;;7.05;1.48;;;23.20;56.60;;;;;;5051073;28;20523;-74
2023/07/30 11:25:50;;;;;;;9.57;1.92;;;23.20;56.60;;;;;;5051253;28;20341;-74
2023/07/30 11:28:34;;;;;;;7.13;2.45;;;23.20;56.60;;;;;;5050936;28;20059;-74
2023/07/30 11:31:05;;;;;;;8.75;2.15;;;23.30;57.20;;;;;;5050634;28;20497;-75
2023/07/30 11:33:31;;;;;;;9.98;1.83;;;23.30;56.80;;;;;;5051128;28;20049;-74
2023/07/30 11:35:59;;;;;;;8.00;1.92;;;23.30;56.60;;;;;;5051142;28;20122;-75
2023/07/30 11:38:27;;;;;;;7.18;2.33;;;23.40;56.00;;;;;;5050864;28;20072;-74
2023/07/30 11:40:53;;;;;;;5.97;1.52;;;23.40;56.30;;;;;;5050862;28;20052;-74
2023/07/30 11:43:21;;;;;;;5.38;1.52;;;23.40;55.60;;;;;;5034214;28;20049;-74
2023/07/30 11:45:47;;;;;;;10.38;2.28;;;23.50;55.40;;;;;;5051022;28;20044;-74
2023/07/30 11:48:13;;;;;;;4.57;1.30;;;23.50;54.80;;;;;;5034110;28;20516;-74
2023/07/30 11:50:46;;;;;;;6.03;1.40;;;23.40;54.40;;;;;;5050757;28;20063;-74
2023/07/30 11:53:13;;;;;;;6.82;2.08;;;23.50;53.70;;;;;;5034396;28;20422;-74
2023/07/30 11:55:39;;;;;;;6.30;1.35;;;23.40;53.40;;;;;;5050633;28;20072;-74
2023/07/30 11:58:06;;;;;;;3.80;1.42;;;23.40;53.70;;;;;;5050442;28;20546;-74
2023/07/30 12:00:33;;;;;;;6.22;1.92;;;23.40;53.90;;;;;;5050595;28;20049;-74
2023/07/30 12:03:08;;;;;;;6.15;1.52;;;23.40;54.00;;;;;;5033909;28;20045;-73
2023/07/30 12:05:36;;;;;;;5.50;1.83;;;23.40;53.90;;;;;;5050780;28;20383;-73
2023/07/30 12:08:03;;;;;;;4.68;1.55;;;23.40;54.40;;;;;;5033896;28;20447;-74
2023/07/30 12:10:47;;;;;;;9.20;2.13;;;23.40;54.80;;;;;;5034156;28;20051;-74
2023/07/30 12:13:16;;;;;;;6.03;1.55;;;23.40;55.20;;;;;;5034543;28;20060;-74
2023/07/30 12:15:55;;;;;;;4.50;1.83;;;23.50;55.20;;;;;;5050521;28;20044;-74
2023/07/30 12:18:21;;;;;;;8.68;1.98;;;23.50;54.80;;;;;;5017782;28;20125;-74
2023/07/30 12:20:50;;;;;;;5.88;1.60;;;23.50;54.80;;;;;;5050342;28;20049;-74
2023/07/30 12:23:16;;;;;;;7.15;1.52;;;23.60;54.80;;;;;;5050634;28;20456;-74
2023/07/30 12:25:41;;;;;;;6.95;1.50;;;23.60;54.30;;;;;;5033800;28;20126;-75
2023/07/30 12:28:07;;;;;;;6.78;1.42;;;23.60;54.60;;;;;;5035089;28;20128;-74
2023/07/30 12:30:35;;;;;;;6.50;1.70;;;23.60;53.70;;;;;;5037163;28;20061;-75
2023/07/30 12:33:01;;;;;;;7.00;1.58;;;23.60;53.40;;;;;;5053886;28;20079;-74
2023/07/30 12:35:26;;;;;;;3.97;1.15;;;23.60;53.10;;;;;;5054126;28;20072;-74
2023/07/30 12:37:52;;;;;;;6.70;1.63;;;23.60;54.30;;;;;;5053813;28;20480;-74
2023/07/30 12:40:18;;;;;;;5.65;1.60;;;23.60;54.70;;;;;;5037332;28;20045;-76
2023/07/30 12:42:43;;;;;;;9.18;1.70;;;23.60;55.20;;;;;;5053979;28;20049;-76